createdAt,value
2022-11-02T00:01:58.371Z,101071.56
2022-11-02T00:04:25.451Z,101070.47
2022-11-02T00:06:52.415Z,101062.34
2022-11-02T00:09:19.294Z,101056.94
2022-11-02T00:11:46.302Z,101058.19
2022-11-02T00:14:13.248Z,101066.31
2022-11-02T00:16:40.461Z,101063.59
2022-11-02T00:19:09.777Z,101059.28
2022-11-02T00:21:37.844Z,101052.16
2022-11-02T00:24:06.167Z,101047.63
2022-11-02T00:26:35.441Z,101049.44
2022-11-02T00:29:04.529Z,101035.94
2022-11-02T00:31:31.835Z,101054.13
2022-11-02T00:33:59.049Z,101047.00
2022-11-02T00:36:26.199Z,101038.91
2022-11-02T00:38:53.253Z,101024.41
2022-11-02T00:41:22.118Z,101025.25
2022-11-02T00:43:49.169Z,101022.78
2022-11-02T00:46:16.177Z,101037.03
2022-11-02T00:48:43.079Z,101028.84
2022-11-02T00:51:10.878Z,101022.69
2022-11-02T00:53:40.807Z,101028.94
2022-11-02T00:56:08.396Z,101016.94
2022-11-02T00:58:35.474Z,101021.44
2022-11-02T01:01:07.585Z,101028.56
2022-11-02T01:03:36.272Z,101024.16
2022-11-02T01:06:14.812Z,101016.78
2022-11-02T01:08:42.350Z,101008.56
2022-11-02T01:11:15.987Z,101003.88
2022-11-02T01:13:45.041Z,101002.78
2022-11-02T01:16:13.284Z,100996.03
2022-11-02T01:18:40.726Z,100989.16
2022-11-02T01:21:09.204Z,100985.34
2022-11-02T01:23:38.202Z,100985.06
2022-11-02T01:26:08.069Z,100998.47
2022-11-02T01:28:36.285Z,100990.38
2022-11-02T01:31:03.681Z,100989.63
2022-11-02T01:33:30.719Z,100988.53
2022-11-02T01:35:58.390Z,100995.78
2022-11-02T01:38:25.883Z,100983.25
2022-11-02T01:40:52.791Z,100972.81
2022-11-02T01:43:27.524Z,100982.38
2022-11-02T01:46:22.451Z,100982.66
2022-11-02T01:48:55.768Z,100981.06
2022-11-02T01:51:31.488Z,100978.47
2022-11-02T01:54:07.350Z,100985.97
2022-11-02T01:56:36.686Z,100979.47
2022-11-02T01:59:11.025Z,100981.94
2022-11-02T02:01:38.956Z,100989.16
2022-11-02T02:04:06.447Z,100978.97
2022-11-02T02:06:38.202Z,100981.16
2022-11-02T02:09:07.703Z,100977.47
2022-11-02T02:11:38.754Z,100965.84
2022-11-02T02:14:14.531Z,100975.53
2022-11-02T02:17:18.467Z,100966.31
2022-11-02T02:20:22.843Z,100968.91
2022-11-02T02:22:59.368Z,100967.19
2022-11-02T02:26:01.170Z,100958.09
2022-11-02T02:28:57.156Z,100964.22
2022-11-02T02:31:59.773Z,100962.38
2022-11-02T02:34:33.225Z,100946.09
2022-11-02T02:37:17.563Z,100947.44
2022-11-02T02:40:07.676Z,100951.84
2022-11-02T02:42:59.369Z,100940.78
2022-11-02T02:46:01.687Z,100944.34
2022-11-02T02:48:30.122Z,100940.41
2022-11-02T02:51:08.346Z,100937.00
2022-11-02T02:54:03.554Z,100930.47
2022-11-02T02:56:40.450Z,100931.31
2022-11-02T02:59:48.654Z,100938.59
2022-11-02T03:02:27.463Z,100936.63
2022-11-02T03:04:54.861Z,100939.44
2022-11-02T03:07:33.796Z,100949.13
2022-11-02T03:10:20.471Z,100939.06
2022-11-02T03:13:39.163Z,100929.22
2022-11-02T03:16:30.286Z,100929.22
2022-11-02T03:19:07.759Z,100922.22
2022-11-02T03:21:42.853Z,100927.78
2022-11-02T03:24:18.272Z,100929.38
2022-11-02T03:27:07.232Z,100935.00
2022-11-02T03:30:22.765Z,100934.75
2022-11-02T03:33:09.058Z,100938.91
2022-11-02T03:35:50.129Z,100935.22
2022-11-02T03:38:26.457Z,100937.94
2022-11-02T03:40:56.931Z,100934.38
2022-11-02T03:43:25.836Z,100935.38
2022-11-02T03:45:58.093Z,100942.50
2022-11-02T03:48:32.681Z,100949.00
2022-11-02T03:51:06.199Z,100946.31
2022-11-02T03:53:55.078Z,100940.78
2022-11-02T03:56:47.281Z,100947.16
2022-11-02T03:59:14.970Z,100937.31
2022-11-02T04:01:47.628Z,100946.41
2022-11-02T04:04:15.352Z,100942.88
2022-11-02T04:06:45.449Z,100951.72
2022-11-02T04:09:13.128Z,100962.63
2022-11-02T04:11:59.515Z,100963.38
2022-11-02T04:14:38.020Z,100957.72
2022-11-02T04:19:58.834Z,100965.31
2022-11-02T04:22:45.514Z,100974.16
2022-11-02T04:25:21.016Z,100972.19
2022-11-02T04:28:09.217Z,100978.31
2022-11-02T04:30:48.001Z,100971.94
2022-11-02T04:33:34.420Z,100969.09
2022-11-02T04:36:13.742Z,100969.09
2022-11-02T04:38:41.235Z,100982.50
2022-11-02T04:41:44.508Z,100974.50
2022-11-02T04:44:34.348Z,100976.50
2022-11-02T04:47:16.412Z,100974.63
2022-11-02T04:49:44.241Z,100981.03
2022-11-02T04:52:15.193Z,100983.72
2022-11-02T04:54:47.151Z,100977.34
2022-11-02T04:57:14.242Z,100996.38
2022-11-02T04:59:41.166Z,100977.84
2022-11-02T05:02:08.675Z,100989.50
2022-11-02T05:04:36.200Z,100989.63
2022-11-02T05:07:06.518Z,100988.78
2022-11-02T05:09:35.881Z,100988.66
2022-11-02T05:12:05.266Z,100990.38
2022-11-02T05:14:33.320Z,100980.41
2022-11-02T05:17:01.274Z,100989.41
2022-11-02T05:19:28.530Z,100975.88
2022-11-02T05:21:55.639Z,100983.72
2022-11-02T05:24:24.378Z,100992.56
2022-11-02T05:26:53.910Z,100991.59
2022-11-02T05:29:24.242Z,100991.59
2022-11-02T05:31:52.416Z,100993.41
2022-11-02T05:34:19.939Z,100997.97
2022-11-02T05:36:50.900Z,101001.41
2022-11-02T05:39:17.923Z,100990.84
2022-11-02T05:41:45.141Z,100991.59
2022-11-02T05:44:13.340Z,100992.44
2022-11-02T05:46:40.396Z,100992.56
2022-11-02T05:49:07.361Z,101001.66
2022-11-02T05:51:34.422Z,101001.66
2022-11-02T05:54:01.483Z,100994.66
2022-11-02T05:56:28.460Z,101001.19
2022-11-02T05:58:56.173Z,101005.84
2022-11-02T06:01:23.246Z,101005.25
2022-11-02T06:03:53.434Z,101008.09
2022-11-02T06:06:21.070Z,101005.47
2022-11-02T06:08:48.082Z,101011.00
2022-11-02T06:11:15.661Z,101025.28
2022-11-02T06:13:43.193Z,101019.34
2022-11-02T06:16:12.237Z,101021.97
2022-11-02T06:18:39.311Z,101030.16
2022-11-02T06:21:06.791Z,101034.59
2022-11-02T06:23:34.332Z,101035.56
2022-11-02T06:26:02.595Z,101036.59
2022-11-02T06:28:30.936Z,101043.81
2022-11-02T06:30:58.407Z,101044.56
2022-11-02T06:33:26.104Z,101048.00
2022-11-02T06:35:54.722Z,101060.25
2022-11-02T06:38:22.372Z,101056.44
2022-11-02T06:41:06.642Z,101064.09
2022-11-02T06:43:36.708Z,101067.41
2022-11-02T06:46:04.367Z,101076.13
2022-11-02T06:48:35.300Z,101074.88
2022-11-02T06:51:04.864Z,101083.59
2022-11-02T06:53:32.633Z,101086.91
2022-11-02T06:56:00.369Z,101083.34
2022-11-02T06:58:27.660Z,101095.75
2022-11-02T07:01:01.377Z,101087.78
2022-11-02T07:03:30.058Z,101090.47
2022-11-02T07:05:58.132Z,101097.97
2022-11-02T07:08:25.953Z,101098.97
2022-11-02T07:10:53.331Z,101102.41
2022-11-02T07:13:20.586Z,101104.09
2022-11-02T07:15:47.929Z,101112.84
2022-11-02T07:18:15.042Z,101113.56
2022-11-02T07:20:41.968Z,101121.56
2022-11-02T07:23:10.334Z,101123.75
2022-11-02T07:25:37.545Z,101136.78
2022-11-02T07:28:05.044Z,101135.66
2022-11-02T07:30:34.699Z,101125.44
2022-11-02T07:33:02.356Z,101136.03
2022-11-02T07:35:29.882Z,101129.66
2022-11-02T07:38:15.090Z,101151.03
2022-11-02T07:40:42.037Z,101135.91
2022-11-02T07:43:09.322Z,101164.81
2022-11-02T07:45:52.024Z,101139.59
2022-11-02T07:48:19.017Z,101153.25
2022-11-02T07:50:46.035Z,101160.25
2022-11-02T07:53:13.032Z,101151.16
2022-11-02T07:55:40.324Z,101162.47
2022-11-02T07:58:10.990Z,101169.94
2022-11-02T08:00:40.848Z,101168.13
2022-11-02T08:03:11.020Z,101179.53
2022-11-02T08:05:41.163Z,101175.97
2022-11-02T08:08:18.937Z,101176.94
2022-11-02T08:10:48.922Z,101181.50
2022-11-02T08:13:22.445Z,101191.59
2022-11-02T08:15:54.256Z,101176.59
2022-11-02T08:18:24.407Z,101182.25
2022-11-02T08:20:51.694Z,101177.81
2022-11-02T08:23:20.925Z,101189.75
2022-11-02T08:25:50.606Z,101201.41
2022-11-02T08:28:32.373Z,101198.63
2022-11-02T08:30:59.785Z,101195.16
2022-11-02T08:33:27.175Z,101200.56
2022-11-02T08:35:54.345Z,101200.56
2022-11-02T08:38:24.199Z,101201.31
2022-11-02T08:40:51.172Z,101211.88
2022-11-02T08:43:18.175Z,101202.78
2022-11-02T08:46:14.331Z,101218.91
2022-11-02T08:48:33.217Z,101216.91
2022-11-02T08:51:00.250Z,101223.06
2022-11-02T08:53:27.259Z,101236.72
2022-11-02T08:55:58.748Z,101240.28
2022-11-02T08:58:26.234Z,101243.84
2022-11-02T09:00:54.256Z,101231.78
2022-11-02T09:03:26.542Z,101238.94
2022-11-02T09:06:00.986Z,101248.41
2022-11-02T09:08:29.056Z,101250.59
2022-11-02T09:11:01.697Z,101245.81
2022-11-02T09:13:29.767Z,101250.97
2022-11-02T09:15:59.319Z,101256.03
2022-11-02T09:18:26.597Z,101262.81
2022-11-02T09:20:53.513Z,101255.41
2022-11-02T09:23:21.825Z,101264.75
2022-11-02T09:25:50.050Z,101268.44
2022-11-02T09:28:17.676Z,101276.16
2022-11-02T09:30:44.754Z,101285.28
2022-11-02T09:33:13.372Z,101287.75
2022-11-02T09:35:46.777Z,101293.91
2022-11-02T09:38:14.486Z,101298.22
2022-11-02T09:40:59.702Z,101288.72
2022-11-02T09:43:50.484Z,101302.41
2022-11-02T09:46:30.050Z,101300.31
2022-11-02T09:49:04.427Z,101296.94
2022-11-02T09:51:41.538Z,101294.44
2022-11-02T09:54:13.280Z,101297.22
2022-11-02T09:56:43.884Z,101300.44
2022-11-02T09:59:15.936Z,101304.59
2022-11-02T10:01:58.091Z,101314.13
2022-11-02T10:05:15.380Z,101305.28
2022-11-02T10:08:20.140Z,101311.03
2022-11-02T10:11:08.233Z,101314.78
2022-11-02T10:13:46.202Z,101318.47
2022-11-02T10:16:27.207Z,101323.50
2022-11-02T10:18:55.182Z,101327.22
2022-11-02T10:21:34.296Z,101324.28
2022-11-02T10:24:09.963Z,101338.88
2022-11-02T10:26:39.380Z,101348.38
2022-11-02T10:29:21.532Z,101353.41
2022-11-02T10:31:48.963Z,101352.53
2022-11-02T10:34:26.147Z,101351.69
2022-11-02T10:37:23.584Z,101352.69
2022-11-02T10:40:24.311Z,101355.91
2022-11-02T10:43:10.168Z,101355.16
2022-11-02T10:45:48.483Z,101359.84
2022-11-02T10:49:00.643Z,101373.50
2022-11-02T10:51:29.363Z,101366.84
2022-11-02T10:53:57.336Z,101384.09
2022-11-02T10:56:31.694Z,101369.16
2022-11-02T10:59:18.892Z,101371.69
2022-11-02T11:01:56.870Z,101381.50
2022-11-02T11:04:32.693Z,101387.00
2022-11-02T11:07:39.473Z,101380.28
2022-11-02T11:10:14.587Z,101395.44
2022-11-02T11:12:43.589Z,101398.66
2022-11-02T11:21:01.393Z,101404.41
2022-11-02T11:23:28.634Z,101406.31
2022-11-02T11:26:04.260Z,101404.41
2022-11-02T11:28:41.147Z,101412.75
2022-11-02T11:31:11.231Z,101414.38
2022-11-02T11:33:47.114Z,101406.06
2022-11-02T11:36:22.537Z,101414.78
2022-11-02T11:38:52.496Z,101420.97
2022-11-02T11:41:20.266Z,101409.38
2022-11-02T11:43:48.888Z,101402.03
2022-11-02T11:46:17.421Z,101413.81
2022-11-02T11:48:56.289Z,101418.53
2022-11-02T11:51:31.989Z,101401.47
2022-11-02T11:54:24.521Z,101427.00
2022-11-02T11:56:55.201Z,101431.69
2022-11-02T11:59:28.254Z,101435.78
2022-11-02T12:01:59.093Z,101432.94
2022-11-02T12:04:34.962Z,101437.06
2022-11-02T12:07:07.718Z,101439.75
2022-11-02T12:09:43.588Z,101428.94
2022-11-02T12:12:31.834Z,101430.81
2022-11-02T12:15:30.262Z,101427.00
2022-11-02T12:18:15.988Z,101431.00
2022-11-02T12:21:14.813Z,101423.56
2022-11-02T12:24:23.966Z,101433.16
2022-11-02T12:27:19.264Z,101431.34
2022-11-02T12:30:18.252Z,101432.34
2022-11-02T12:33:27.044Z,101428.47
2022-11-02T12:36:13.591Z,101443.22
2022-11-02T12:38:55.551Z,101445.81
2022-11-02T12:41:43.132Z,101442.56
2022-11-02T12:44:29.750Z,101443.28
2022-11-02T12:47:10.028Z,101444.22
2022-11-02T12:50:05.480Z,101447.00
2022-11-02T12:53:19.209Z,101449.47
2022-11-02T12:55:52.459Z,101451.03
2022-11-02T12:58:25.688Z,101440.97
2022-11-02T13:01:00.881Z,101450.75
2022-11-02T13:03:34.782Z,101449.25
2022-11-02T13:06:08.044Z,101452.47
2022-11-02T13:08:47.115Z,101461.09
2022-11-02T13:11:43.984Z,101454.75
2022-11-02T13:14:20.149Z,101461.91
2022-11-02T13:16:57.354Z,101455.25
2022-11-02T13:19:40.134Z,101458.44
2022-11-02T13:22:11.644Z,101468.69
2022-11-02T13:24:45.545Z,101473.28
2022-11-02T13:27:37.124Z,101465.25
2022-11-02T13:30:17.390Z,101457.06
2022-11-02T13:32:58.756Z,101462.09
2022-11-02T13:35:33.536Z,101459.78
2022-11-02T13:38:12.738Z,101458.38
2022-11-02T13:41:13.747Z,101468.84
2022-11-02T13:44:09.615Z,101454.81
2022-11-02T13:47:10.340Z,101470.03
2022-11-02T13:49:49.192Z,101469.31
2022-11-02T13:52:39.027Z,101467.69
2022-11-02T13:55:10.512Z,101479.06
2022-11-02T13:57:43.216Z,101482.34
2022-11-02T14:00:25.167Z,101481.78
2022-11-02T14:03:13.742Z,101479.38
2022-11-02T14:06:02.045Z,101480.53
2022-11-02T14:08:41.873Z,101482.72
2022-11-02T14:11:14.338Z,101482.88
2022-11-02T14:13:56.485Z,101484.44
2022-11-02T14:16:42.339Z,101484.34
2022-11-02T14:19:20.407Z,101468.56
2022-11-02T14:22:00.286Z,101473.75
2022-11-02T14:24:41.701Z,101473.72
2022-11-02T14:27:16.530Z,101467.16
2022-11-02T14:29:46.176Z,101477.53
2022-11-02T14:32:40.902Z,101457.41
2022-11-02T14:35:39.362Z,101465.00
2022-11-02T14:38:57.891Z,101469.69
2022-11-02T14:42:09.029Z,101470.28
2022-11-02T14:45:06.320Z,101469.53
2022-11-02T14:47:37.225Z,101462.19
2022-11-02T14:50:20.325Z,101464.06
2022-11-02T14:53:20.102Z,101463.25
2022-11-02T14:55:54.586Z,101475.97
2022-11-02T14:58:37.062Z,101459.59
2022-11-02T15:01:05.931Z,101455.34
2022-11-02T15:03:39.544Z,101469.16
2022-11-02T15:06:17.737Z,101470.81
2022-11-02T15:09:01.773Z,101472.19
2022-11-02T15:11:58.259Z,101466.16
2022-11-02T15:14:37.446Z,101472.97
2022-11-02T15:17:13.238Z,101481.78
2022-11-02T15:19:51.855Z,101475.25
2022-11-02T15:22:56.573Z,101476.16
2022-11-02T15:25:33.641Z,101478.50
2022-11-02T15:28:30.313Z,101471.72
2022-11-02T15:31:03.513Z,101467.66
2022-11-02T15:33:41.929Z,101477.88
2022-11-02T15:36:18.990Z,101490.97
2022-11-02T15:38:51.877Z,101488.88
2022-11-02T15:41:38.763Z,101478.78
2022-11-02T15:44:14.414Z,101485.44
2022-11-02T15:47:53.562Z,101469.56
2022-11-02T15:50:45.072Z,101474.97
2022-11-02T15:53:38.738Z,101476.56
2022-11-02T15:56:23.323Z,101471.78
2022-11-02T15:59:08.586Z,101465.84
2022-11-02T16:01:35.971Z,101462.78
2022-11-02T16:04:06.067Z,101464.75
2022-11-02T16:06:39.093Z,101475.31
2022-11-02T16:09:35.909Z,101475.19
2022-11-02T16:12:21.709Z,101475.53
2022-11-02T16:15:15.795Z,101479.97
2022-11-02T16:17:42.885Z,101484.28
2022-11-02T16:20:33.479Z,101484.63
2022-11-02T16:23:05.758Z,101494.19
2022-11-02T16:25:49.005Z,101487.88
2022-11-02T16:28:32.088Z,101485.13
2022-11-02T16:31:18.951Z,101492.34
2022-11-02T16:33:51.917Z,101488.81
2022-11-02T16:36:25.590Z,101486.84
2022-11-02T16:39:13.420Z,101485.03
2022-11-02T16:41:41.141Z,101489.53
2022-11-02T16:44:17.198Z,101499.19
2022-11-02T16:47:09.463Z,101488.19
2022-11-02T16:49:58.068Z,101491.34
2022-11-02T16:52:36.947Z,101489.19
2022-11-02T16:55:39.187Z,101482.28
2022-11-02T16:58:12.964Z,101489.84
2022-11-02T17:00:39.950Z,101483.03
2022-11-02T17:03:09.542Z,101486.94
2022-11-02T17:05:42.329Z,101479.59
2022-11-02T17:08:28.878Z,101489.63
2022-11-02T17:10:59.772Z,101486.25
2022-11-02T17:13:32.071Z,101489.56
2022-11-02T17:16:10.703Z,101496.28
2022-11-02T17:18:38.368Z,101483.91
2022-11-02T17:21:19.734Z,101496.00
2022-11-02T17:23:48.598Z,101487.59
2022-11-02T17:26:25.922Z,101497.66
2022-11-02T17:29:01.697Z,101498.53
2022-11-02T17:31:35.459Z,101493.22
2022-11-02T17:34:19.399Z,101492.00
2022-11-02T17:36:48.963Z,101494.38
2022-11-02T17:39:19.122Z,101498.47
2022-11-02T17:42:15.673Z,101506.09
2022-11-02T17:44:45.289Z,101504.81
2022-11-02T17:47:14.613Z,101502.22
2022-11-02T17:49:41.662Z,101497.91
2022-11-02T17:52:13.932Z,101499.84
2022-11-02T17:54:40.897Z,101491.94
2022-11-02T17:57:15.138Z,101492.16
2022-11-02T17:59:42.160Z,101496.03
2022-11-02T18:02:16.511Z,101488.34
2022-11-02T18:07:15.837Z,101488.78
2022-11-02T18:09:42.742Z,101476.00
2022-11-02T18:12:13.610Z,101482.72
2022-11-02T18:14:40.753Z,101472.38
2022-11-02T18:17:08.614Z,101478.94
2022-11-02T18:19:35.544Z,101476.56
2022-11-02T18:22:02.854Z,101474.94
2022-11-02T18:24:29.861Z,101482.44
2022-11-02T18:26:56.784Z,101475.53
2022-11-02T18:29:23.993Z,101459.56
2022-11-02T18:31:50.906Z,101469.47
2022-11-02T18:34:17.881Z,101464.94
2022-11-02T18:36:44.937Z,101465.13
2022-11-02T18:39:11.919Z,101461.69
2022-11-02T18:41:40.356Z,101456.31
2022-11-02T18:44:14.668Z,101463.41
2022-11-02T18:46:42.869Z,101448.25
2022-11-02T18:49:09.800Z,101441.84
2022-11-02T18:51:36.963Z,101441.78
2022-11-02T18:54:06.215Z,101436.59
2022-11-02T18:56:33.347Z,101440.47
2022-11-02T18:59:00.413Z,101435.25
2022-11-02T19:01:28.198Z,101434.31
2022-11-02T19:04:00.322Z,101433.41
2022-11-02T19:06:48.820Z,101442.56
2022-11-02T19:09:18.260Z,101433.41
2022-11-02T19:12:06.057Z,101434.41
2022-11-02T19:14:43.005Z,101434.59
2022-11-02T19:17:11.959Z,101434.78
2022-11-02T19:19:43.159Z,101422.28
2022-11-02T19:22:13.411Z,101428.75
2022-11-02T19:24:40.377Z,101426.81
2022-11-02T19:27:08.568Z,101422.25
2022-11-02T19:29:35.465Z,101417.03
2022-11-02T19:32:02.358Z,101417.72
2022-11-02T19:34:30.393Z,101412.22
2022-11-02T19:36:57.706Z,101415.50
2022-11-02T19:39:25.089Z,101407.19
2022-11-02T19:41:52.411Z,101406.72
2022-11-02T19:44:19.412Z,101410.00
2022-11-02T19:46:46.814Z,101410.19
2022-11-02T19:49:13.884Z,101402.41
2022-11-02T19:51:40.989Z,101407.13
2022-11-02T19:54:08.355Z,101411.78
2022-11-02T19:56:36.986Z,101407.53
2022-11-02T19:59:05.900Z,101400.53
2022-11-02T20:01:43.528Z,101401.69
2022-11-02T20:04:10.948Z,101399.22
2022-11-02T20:06:42.581Z,101398.34
2022-11-02T20:09:19.827Z,101393.34
2022-11-02T20:11:48.161Z,101392.28
2022-11-02T20:14:17.318Z,101398.56
2022-11-02T20:16:47.249Z,101393.16
2022-11-02T20:19:20.938Z,101404.59
2022-11-02T20:21:48.202Z,101399.88
2022-11-02T20:24:16.365Z,101399.59
2022-11-02T20:26:43.330Z,101402.94
2022-11-02T20:29:13.692Z,101382.19
2022-11-02T20:31:44.436Z,101379.94
2022-11-02T20:34:13.210Z,101386.94
2022-11-02T20:36:40.239Z,101388.88
2022-11-02T20:39:07.988Z,101383.38
2022-11-02T20:41:34.921Z,101385.97
2022-11-02T20:44:01.982Z,101372.50
2022-11-02T20:46:41.002Z,101375.84
2022-11-02T20:49:36.321Z,101369.75
2022-11-02T20:51:57.255Z,101374.16
2022-11-02T20:54:25.250Z,101365.97
2022-11-02T20:56:52.432Z,101369.44
2022-11-02T20:59:19.407Z,101363.84
2022-11-02T21:01:46.832Z,101372.97
2022-11-02T21:04:19.713Z,101351.44
2022-11-02T21:06:49.832Z,101354.03
2022-11-02T21:09:17.935Z,101357.78
2022-11-02T21:12:03.296Z,101352.41
2022-11-02T21:14:30.236Z,101349.72
2022-11-02T21:16:57.153Z,101351.56
2022-11-02T21:19:24.235Z,101336.66
2022-11-02T21:21:55.042Z,101342.81
2022-11-02T21:24:25.381Z,101351.84
2022-11-02T21:26:52.264Z,101349.16
2022-11-02T21:29:19.553Z,101341.09
2022-11-02T21:31:46.565Z,101337.63
2022-11-02T21:34:13.611Z,101345.91
2022-11-02T21:36:40.564Z,101337.16
2022-11-02T21:39:07.742Z,101341.88
2022-11-02T21:41:38.333Z,101331.22
2022-11-02T21:44:07.197Z,101328.00
2022-11-02T21:46:34.705Z,101338.06
2022-11-02T21:49:02.020Z,101331.06
2022-11-02T21:51:29.118Z,101333.19
2022-11-02T21:53:56.756Z,101321.78
2022-11-02T21:56:28.100Z,101329.75
2022-11-02T21:58:55.952Z,101339.53
2022-11-02T22:01:44.476Z,101325.31
2022-11-02T22:04:15.727Z,101322.75
2022-11-02T22:06:42.989Z,101334.34
2022-11-02T22:09:12.716Z,101321.66
2022-11-02T22:11:40.290Z,101317.06
2022-11-02T22:14:07.436Z,101312.34
2022-11-02T22:16:40.677Z,101308.69
2022-11-02T22:19:13.677Z,101300.72
2022-11-02T22:21:44.070Z,101304.38
2022-11-02T22:24:11.743Z,101296.50
2022-11-02T22:26:39.274Z,101300.81
2022-11-02T22:29:06.964Z,101294.56
2022-11-02T22:31:40.002Z,101289.09
2022-11-02T22:34:10.501Z,101282.75
2022-11-02T22:36:40.844Z,101286.94
2022-11-02T22:39:12.657Z,101278.78
2022-11-02T22:41:47.704Z,101273.28
2022-11-02T22:44:18.657Z,101269.75
2022-11-02T22:46:50.890Z,101282.25
2022-11-02T22:49:19.889Z,101273.19
2022-11-02T22:51:49.573Z,101271.38
2022-11-02T22:54:19.460Z,101264.38
2022-11-02T22:56:48.518Z,101267.25
2022-11-02T22:59:15.721Z,101259.19
2022-11-02T23:01:42.987Z,101243.81
2022-11-02T23:04:11.697Z,101252.72
2022-11-02T23:06:38.813Z,101246.50
2022-11-02T23:09:06.642Z,101249.94
2022-11-02T23:11:36.634Z,101243.38
2022-11-02T23:14:11.669Z,101248.66
2022-11-02T23:16:42.237Z,101248.47
2022-11-02T23:19:38.228Z,101251.16
2022-11-02T23:22:30.194Z,101238.47
2022-11-02T23:25:17.913Z,101234.69
2022-11-02T23:28:21.542Z,101228.22
2022-11-02T23:31:07.217Z,101229.00
2022-11-02T23:33:38.214Z,101220.03
2022-11-02T23:36:11.340Z,101224.47
2022-11-02T23:39:02.774Z,101219.97
2022-11-02T23:41:31.566Z,101216.06
2022-11-02T23:44:11.678Z,101207.91
2022-11-02T23:46:46.959Z,101208.63
2022-11-02T23:49:16.235Z,101205.09
2022-11-02T23:52:02.041Z,101197.03
2022-11-02T23:54:47.654Z,101201.44
2022-11-02T23:57:14.738Z,101197.78
2022-11-02T23:59:41.638Z,101203.91
